Time;durP1;ratioP1;P1;durP2;ratioP2;P2;SDS_P1;SDS_P2;PMS_P1;PMS_P2;Temp;Humidity;BMP_temperature;BMP_pressure;BME280_temperature;BME280_humidity;BME280_pressure;Samples;Min_cycle;Max_cycle;Signal;HPM_P1;HPM_P2
2024/03/25 00:00:45;;;;;;;11.13;2.05;;;6.00;99.90;;;;;;4964940;28;20094;-87
2024/03/25 00:03:12;;;;;;;12.45;2.15;;;5.70;99.90;;;;;;4959607;28;20075;-87
2024/03/25 00:05:39;;;;;;;8.57;1.63;;;5.50;99.90;;;;;;4983090;28;20065;-87
2024/03/25 00:08:06;;;;;;;17.00;2.65;;;5.50;99.90;;;;;;4956193;29;20078;-87
2024/03/25 00:10:32;;;;;;;13.15;2.42;;;5.50;99.90;;;;;;4973029;29;20068;-87
2024/03/25 00:13:00;;;;;;;11.77;2.03;;;5.60;99.90;;;;;;4957938;29;20031;-87
2024/03/25 00:15:27;;;;;;;13.18;1.92;;;5.50;99.90;;;;;;4975756;28;20074;-87
2024/03/25 00:17:53;;;;;;;11.52;2.10;;;5.50;99.90;;;;;;4960539;29;20074;-87
2024/03/25 00:20:20;;;;;;;9.52;1.98;;;6.30;99.90;;;;;;4947133;29;20040;-87
2024/03/25 00:22:46;;;;;;;10.50;1.90;;;6.40;99.90;;;;;;4955253;29;20049;-87
2024/03/25 00:25:13;;;;;;;14.10;2.20;;;5.50;99.90;;;;;;4958247;29;20496;-88
2024/03/25 00:27:40;;;;;;;13.60;2.17;;;5.50;99.90;;;;;;4956327;29;20058;-87
2024/03/25 00:30:08;;;;;;;15.23;2.42;;;5.50;99.90;;;;;;4963277;28;20385;-87
2024/03/25 00:32:36;;;;;;;13.82;1.95;;;5.50;99.90;;;;;;4962114;28;20046;-87
2024/03/25 00:35:02;;;;;;;12.85;2.25;;;5.60;99.90;;;;;;4967687;29;20121;-88
2024/03/25 00:37:29;;;;;;;14.73;2.00;;;5.50;99.90;;;;;;4961733;28;20043;-87
2024/03/25 00:39:56;;;;;;;12.00;2.10;;;5.80;99.90;;;;;;4953295;29;20047;-88
2024/03/25 00:42:22;;;;;;;10.85;1.92;;;5.40;99.90;;;;;;4960528;29;20043;-88
2024/03/25 00:44:49;;;;;;;12.40;2.08;;;6.10;99.90;;;;;;4967064;29;20046;-88
2024/03/25 00:47:16;;;;;;;14.15;1.80;;;5.40;99.90;;;;;;4977556;28;20046;-88
2024/03/25 00:49:42;;;;;;;9.15;1.67;;;5.40;99.90;;;;;;4960723;29;20508;-88
2024/03/25 00:52:09;;;;;;;19.25;2.25;;;6.00;99.90;;;;;;4947886;29;20641;-88
2024/03/25 00:54:35;;;;;;;11.48;2.03;;;5.40;99.90;;;;;;4969547;29;20075;-88
2024/03/25 00:57:02;;;;;;;10.45;2.10;;;5.40;99.90;;;;;;4959243;29;20122;-88
2024/03/25 00:59:29;;;;;;;10.57;1.80;;;5.40;99.90;;;;;;4959020;29;20057;-87
2024/03/25 01:01:55;;;;;;;13.13;2.08;;;5.30;99.90;;;;;;4975113;29;20039;-87
2024/03/25 01:04:23;;;;;;;15.57;2.55;;;5.30;99.90;;;;;;4958344;29;20460;-87
2024/03/25 01:06:49;;;;;;;13.02;2.53;;;5.30;99.90;;;;;;4955821;29;20059;-87
2024/03/25 01:09:16;;;;;;;12.77;2.05;;;5.30;99.90;;;;;;4950312;29;20046;-88
2024/03/25 01:11:42;;;;;;;11.27;1.90;;;5.20;99.90;;;;;;4974533;29;20043;-87
2024/03/25 01:14:09;;;;;;;11.82;2.00;;;5.30;99.90;;;;;;4967946;28;20042;-88
2024/03/25 01:16:36;;;;;;;13.40;2.20;;;5.70;99.90;;;;;;4975946;29;20043;-88
2024/03/25 01:19:03;;;;;;;8.57;1.90;;;5.30;99.90;;;;;;4958494;29;20035;-87
2024/03/25 01:21:30;;;;;;;10.40;2.05;;;5.40;99.90;;;;;;4963974;29;20394;-87
2024/03/25 01:23:56;;;;;;;14.57;2.30;;;5.70;99.90;;;;;;4958553;29;20039;-87
2024/03/25 01:26:23;;;;;;;7.78;1.95;;;5.40;99.90;;;;;;4962053;29;20039;-88
2024/03/25 01:28:50;;;;;;;12.13;1.58;;;5.40;99.90;;;;;;4958638;29;20051;-87
2024/03/25 01:31:16;;;;;;;16.88;2.55;;;5.40;99.90;;;;;;4974178;29;20070;-87
2024/03/25 01:33:43;;;;;;;10.48;2.45;;;5.30;99.90;;;;;;4978478;29;21369;-87
2024/03/25 01:36:11;;;;;;;18.02;2.40;;;5.30;99.90;;;;;;4957519;29;20043;-88
2024/03/25 01:38:37;;;;;;;10.98;1.90;;;6.10;99.90;;;;;;4958661;29;20142;-88
2024/03/25 01:41:12;;;;;;;12.93;2.00;;;5.30;99.90;;;;;;4978832;29;20118;-88
2024/03/25 01:43:39;;;;;;;10.75;2.10;;;5.70;99.90;;;;;;4952460;29;20071;-88
2024/03/25 01:46:06;;;;;;;8.13;1.92;;;5.20;99.90;;;;;;4969738;28;20077;-88
2024/03/25 01:48:34;;;;;;;17.65;2.20;;;5.20;99.90;;;;;;4962248;28;20145;-88
2024/03/25 01:51:02;;;;;;;13.60;2.28;;;6.00;99.90;;;;;;4963962;29;20130;-87
2024/03/25 01:53:30;;;;;;;14.25;2.25;;;5.20;99.90;;;;;;4971014;29;20054;-88
2024/03/25 01:55:59;;;;;;;14.88;2.28;;;5.20;99.90;;;;;;4969087;28;20050;-88
2024/03/25 01:58:26;;;;;;;14.73;2.42;;;5.20;99.90;;;;;;4958166;29;20078;-88
2024/03/25 02:00:54;;;;;;;24.50;2.40;;;5.70;99.90;;;;;;4949128;29;20086;-87
2024/03/25 02:03:22;;;;;;;17.20;2.63;;;5.30;99.90;;;;;;4965390;29;20449;-87
2024/03/25 02:05:59;;;;;;;11.70;2.17;;;5.50;99.90;;;;;;4948487;29;20060;-88
2024/03/25 02:08:27;;;;;;;15.80;2.17;;;5.40;99.90;;;;;;4951230;29;20075;-88
2024/03/25 02:10:57;;;;;;;17.30;2.88;;;5.30;99.90;;;;;;4970980;28;20041;-88
2024/03/25 02:13:24;;;;;;;11.30;2.13;;;5.50;99.90;;;;;;4970214;29;20886;-88
2024/03/25 02:15:51;;;;;;;12.27;2.00;;;5.40;99.90;;;;;;4973288;28;20040;-88
2024/03/25 02:18:18;;;;;;;17.30;2.58;;;6.00;99.90;;;;;;4967241;29;20058;-88
2024/03/25 02:20:45;;;;;;;10.38;2.10;;;6.10;99.90;;;;;;4958840;29;20043;-88
2024/03/25 02:23:12;;;;;;;13.07;2.00;;;5.40;99.90;;;;;;4957961;29;20412;-88
2024/03/25 02:25:42;;;;;;;13.38;2.45;;;6.30;99.90;;;;;;4948568;29;21789;-88
2024/03/25 02:28:09;;;;;;;17.67;2.33;;;5.50;99.90;;;;;;4949548;29;20118;-88
2024/03/25 02:30:36;;;;;;;16.42;2.08;;;5.40;99.90;;;;;;4964690;28;20049;-87
2024/03/25 02:33:03;;;;;;;13.95;2.28;;;5.40;99.90;;;;;;4957796;29;20413;-88
2024/03/25 02:35:30;;;;;;;15.23;2.30;;;5.50;99.90;;;;;;4951158;29;20040;-88
2024/03/25 02:37:57;;;;;;;9.90;1.90;;;5.50;99.90;;;;;;4973407;29;20066;-88
2024/03/25 02:40:26;;;;;;;17.85;2.47;;;6.10;99.90;;;;;;4956970;29;20046;-88
2024/03/25 02:42:52;;;;;;;14.57;2.33;;;5.40;99.90;;;;;;4968456;28;20094;-88
2024/03/25 02:45:19;;;;;;;27.42;2.92;;;6.20;99.90;;;;;;4968773;28;20047;-88
2024/03/25 02:47:46;;;;;;;9.88;2.00;;;5.50;99.90;;;;;;4956458;29;20043;-88
2024/03/25 02:50:13;;;;;;;14.98;1.88;;;5.40;99.90;;;;;;4957328;29;20043;-88
2024/03/25 02:52:39;;;;;;;14.27;2.13;;;6.50;99.90;;;;;;4964842;28;20041;-87
2024/03/25 02:55:06;;;;;;;15.73;2.45;;;6.10;99.90;;;;;;4975860;29;20382;-88
2024/03/25 02:57:33;;;;;;;14.68;2.22;;;5.40;99.90;;;;;;4956516;29;20094;-88
2024/03/25 03:00:00;;;;;;;12.10;2.63;;;5.40;99.90;;;;;;4971319;28;20047;-88
2024/03/25 03:02:26;;;;;;;12.30;1.95;;;6.00;99.90;;;;;;4982669;29;20404;-88
2024/03/25 03:04:53;;;;;;;13.55;2.10;;;5.80;99.90;;;;;;4955478;29;20059;-87
2024/03/25 03:07:20;;;;;;;9.40;2.00;;;5.40;99.90;;;;;;4961652;29;20405;-88
2024/03/25 03:09:46;;;;;;;13.90;2.50;;;5.30;99.90;;;;;;4957652;29;20035;-88
2024/03/25 03:12:13;;;;;;;12.07;2.25;;;5.40;99.90;;;;;;4966881;29;20067;-88
2024/03/25 03:14:40;;;;;;;12.50;2.40;;;6.00;99.90;;;;;;4950754;29;20074;-87
2024/03/25 03:17:06;;;;;;;11.80;2.30;;;5.30;99.90;;;;;;4956824;29;20126;-88
2024/03/25 03:19:33;;;;;;;13.15;2.20;;;5.40;99.90;;;;;;4956910;29;20047;-88
2024/03/25 03:21:59;;;;;;;11.07;2.42;;;5.80;99.90;;;;;;4948077;29;20036;-88
2024/03/25 03:24:26;;;;;;;11.45;1.83;;;5.40;99.90;;;;;;4966799;28;20035;-88
2024/03/25 03:26:53;;;;;;;11.00;1.92;;;5.60;99.90;;;;;;4974604;28;20035;-88
2024/03/25 03:29:19;;;;;;;9.55;1.92;;;5.30;99.90;;;;;;4959912;29;20039;-88
2024/03/25 03:31:46;;;;;;;17.80;2.47;;;6.20;99.90;;;;;;4956160;29;20070;-87
2024/03/25 03:34:13;;;;;;;13.27;2.85;;;5.90;99.90;;;;;;4955215;29;20035;-88
2024/03/25 03:36:40;;;;;;;12.18;1.98;;;6.50;99.90;;;;;;4951212;29;20114;-87
2024/03/25 03:39:09;;;;;;;8.07;1.90;;;6.30;99.90;;;;;;4957016;29;20118;-88
2024/03/25 03:41:36;;;;;;;13.18;1.92;;;6.40;99.90;;;;;;4954972;29;20055;-88
2024/03/25 03:44:03;;;;;;;9.68;1.98;;;5.30;99.90;;;;;;4956577;29;20493;-88
2024/03/25 03:46:30;;;;;;;11.80;1.60;;;5.30;99.90;;;;;;4956771;29;20075;-88
2024/03/25 03:48:56;;;;;;;9.40;1.90;;;4.90;99.90;;;;;;4956286;29;20042;-88
2024/03/25 03:51:23;;;;;;;8.82;1.58;;;6.10;99.90;;;;;;4956696;29;20437;-88
2024/03/25 03:53:49;;;;;;;8.73;1.55;;;5.30;99.90;;;;;;4961283;29;20074;-88
2024/03/25 03:56:16;;;;;;;11.50;1.85;;;5.30;99.90;;;;;;4961805;29;20465;-88
2024/03/25 03:58:43;;;;;;;8.57;1.38;;;5.40;99.90;;;;;;4956515;29;20039;-88
2024/03/25 04:01:17;;;;;;;11.95;2.05;;;5.80;99.90;;;;;;4957521;29;20059;-88
2024/03/25 04:03:44;;;;;;;14.32;1.80;;;5.30;99.90;;;;;;4967940;28;20156;-88
2024/03/25 04:06:12;;;;;;;13.55;1.60;;;5.20;99.90;;;;;;4964584;29;20052;-87
2024/03/25 04:08:40;;;;;;;10.98;1.70;;;6.20;99.90;;;;;;4969156;29;20046;-88
2024/03/25 04:11:07;;;;;;;11.75;1.90;;;6.00;99.90;;;;;;4959977;29;20039;-88
2024/03/25 04:13:34;;;;;;;11.20;1.60;;;6.20;99.90;;;;;;4969286;29;20035;-88
2024/03/25 04:16:05;;;;;;;9.23;1.50;;;5.30;99.90;;;;;;4956313;29;20089;-88
2024/03/25 04:18:33;;;;;;;10.70;1.77;;;5.30;99.90;;;;;;4959516;29;20102;-88
2024/03/25 04:21:00;;;;;;;14.65;2.03;;;6.50;99.90;;;;;;4959890;29;20075;-88
2024/03/25 04:23:27;;;;;;;12.05;1.45;;;5.40;99.90;;;;;;4965688;29;20507;-88
2024/03/25 04:25:53;;;;;;;16.05;2.20;;;5.30;99.90;;;;;;4952691;29;20094;-88
2024/03/25 04:28:20;;;;;;;11.30;1.67;;;5.40;99.90;;;;;;4959813;29;20070;-88
2024/03/25 04:30:53;;;;;;;11.48;2.17;;;6.70;99.90;;;;;;4977625;28;20078;-88
2024/03/25 04:33:20;;;;;;;8.15;1.67;;;6.70;99.90;;;;;;4980740;28;20497;-87
2024/03/25 04:35:47;;;;;;;7.65;1.77;;;5.40;99.90;;;;;;4950824;28;20046;-88
2024/03/25 04:38:16;;;;;;;10.70;1.63;;;6.50;99.90;;;;;;4966119;29;20061;-88
2024/03/25 04:40:44;;;;;;;10.63;1.83;;;6.50;99.90;;;;;;4959608;29;20079;-88
2024/03/25 04:43:10;;;;;;;12.27;2.25;;;5.30;99.90;;;;;;4963482;28;20058;-88
2024/03/25 04:45:37;;;;;;;11.50;1.83;;;5.30;99.90;;;;;;4957372;29;20036;-88
2024/03/25 04:48:04;;;;;;;11.40;1.92;;;6.30;99.90;;;;;;4978038;28;20389;-89
2024/03/25 04:50:31;;;;;;;9.55;1.50;;;5.30;99.90;;;;;;4960730;29;20043;-88
2024/03/25 04:52:57;;;;;;;12.07;1.67;;;5.80;99.90;;;;;;4967301;28;20046;-88
2024/03/25 04:55:24;;;;;;;13.98;2.20;;;5.20;99.90;;;;;;4959571;29;20054;-88
2024/03/25 04:57:51;;;;;;;9.85;1.38;;;5.30;99.90;;;;;;4962701;29;20484;-88
2024/03/25 05:00:18;;;;;;;9.27;1.50;;;5.80;99.90;;;;;;4952939;29;20043;-88
2024/03/25 05:02:44;;;;;;;12.90;2.00;;;5.20;99.90;;;;;;4959236;29;20047;-88
2024/03/25 05:05:11;;;;;;;9.25;3.08;;;5.20;99.90;;;;;;4955025;29;20075;-88
2024/03/25 05:07:38;;;;;;;11.32;2.13;;;5.20;99.90;;;;;;4952628;29;20134;-88
2024/03/25 05:10:05;;;;;;;11.95;2.13;;;6.10;99.90;;;;;;4956400;29;20048;-88
2024/03/25 05:12:32;;;;;;;14.45;1.70;;;5.20;99.90;;;;;;4962658;28;20039;-87
2024/03/25 05:14:58;;;;;;;11.52;2.00;;;5.90;99.90;;;;;;4973712;29;20040;-88
2024/03/25 05:17:25;;;;;;;8.10;1.58;;;6.30;99.90;;;;;;4939652;29;20493;-89
2024/03/25 05:19:52;;;;;;;9.82;1.67;;;6.30;99.90;;;;;;4948578;29;20067;-88
2024/03/25 05:22:18;;;;;;;9.93;1.63;;;5.20;99.90;;;;;;4969788;28;20042;-88
2024/03/25 05:24:45;;;;;;;12.55;2.42;;;5.90;99.90;;;;;;4959356;29;20068;-88
2024/03/25 05:27:11;;;;;;;8.57;1.65;;;5.20;99.90;;;;;;4958431;29;20130;-88
2024/03/25 05:29:38;;;;;;;9.10;1.80;;;5.20;99.90;;;;;;4952120;29;20139;-87
2024/03/25 05:32:05;;;;;;;14.60;1.92;;;5.40;99.90;;;;;;4964600;28;20049;-88
2024/03/25 05:34:32;;;;;;;11.32;2.10;;;5.20;99.90;;;;;;4974015;29;20035;-88
2024/03/25 05:36:58;;;;;;;7.70;2.00;;;6.20;99.90;;;;;;4972783;28;20067;-88
2024/03/25 05:39:25;;;;;;;9.43;1.88;;;6.20;99.90;;;;;;4958359;29;20126;-88
2024/03/25 05:41:54;;;;;;;7.85;1.85;;;5.20;99.90;;;;;;4956797;28;20547;-88
2024/03/25 05:44:20;;;;;;;7.90;1.60;;;5.20;99.90;;;;;;4965481;28;20043;-88
2024/03/25 05:46:47;;;;;;;8.50;1.80;;;5.20;99.90;;;;;;4960610;29;20043;-88
2024/03/25 05:49:14;;;;;;;11.32;1.83;;;5.90;99.90;;;;;;4955422;29;20043;-88
2024/03/25 05:51:40;;;;;;;5.78;1.40;;;6.00;99.90;;;;;;4957040;29;20039;-88
2024/03/25 05:54:07;;;;;;;9.95;2.13;;;5.30;99.90;;;;;;4957909;29;20039;-88
2024/03/25 05:56:34;;;;;;;10.27;2.13;;;6.10;99.90;;;;;;4959930;28;20058;-88
2024/03/25 05:59:01;;;;;;;14.52;2.10;;;6.20;99.90;;;;;;4961725;29;20392;-88
2024/03/25 06:01:27;;;;;;;14.05;1.85;;;5.70;99.90;;;;;;4957740;29;20062;-89
2024/03/25 06:03:54;;;;;;;8.95;2.33;;;6.20;99.90;;;;;;4984211;28;20514;-88
2024/03/25 06:06:21;;;;;;;10.35;1.98;;;5.20;99.90;;;;;;4954271;29;20137;-87
2024/03/25 06:08:50;;;;;;;7.80;2.13;;;5.20;99.90;;;;;;4959617;28;20416;-88
2024/03/25 06:11:17;;;;;;;16.15;2.22;;;5.60;99.90;;;;;;4983347;28;20098;-88
2024/03/25 06:13:48;;;;;;;9.23;1.83;;;5.00;99.90;;;;;;4978033;29;20081;-88
2024/03/25 06:16:15;;;;;;;17.23;2.42;;;5.00;99.90;;;;;;4957900;29;20086;-88
2024/03/25 06:18:42;;;;;;;11.93;2.05;;;5.00;99.90;;;;;;4964443;28;20075;-88
2024/03/25 06:21:08;;;;;;;13.30;2.17;;;4.90;99.90;;;;;;4970617;28;20031;-87
2024/03/25 06:23:35;;;;;;;13.85;2.08;;;4.90;99.90;;;;;;4938019;29;20051;-88
2024/03/25 06:26:01;;;;;;;8.23;2.13;;;4.90;99.90;;;;;;4951610;29;20044;-88
2024/03/25 06:28:29;;;;;;;7.50;1.75;;;4.90;99.90;;;;;;4964181;29;20054;-87
2024/03/25 06:36:25;;;;;;;14.77;2.08;;;5.80;99.90;;;;;;4955500;29;20051;-88
2024/03/25 06:38:52;;;;;;;7.47;1.70;;;5.30;99.90;;;;;;4967097;28;20042;-88
2024/03/25 06:41:19;;;;;;;10.77;2.08;;;5.80;99.90;;;;;;4957023;29;20039;-88
2024/03/25 06:43:45;;;;;;;8.48;2.00;;;5.30;99.90;;;;;;4967274;28;20051;-88
2024/03/25 06:46:12;;;;;;;18.38;2.33;;;5.40;99.90;;;;;;4961238;29;20046;-88
2024/03/25 06:48:39;;;;;;;16.45;2.05;;;5.80;99.90;;;;;;4966950;29;20040;-88
2024/03/25 06:51:05;;;;;;;6.70;1.80;;;5.60;99.90;;;;;;4945968;29;20518;-87
2024/03/25 06:53:33;;;;;;;10.40;2.53;;;5.50;99.90;;;;;;4952191;28;20122;-88
2024/03/25 06:56:00;;;;;;;11.43;1.85;;;6.30;99.90;;;;;;4960220;29;20035;-88
2024/03/25 06:58:28;;;;;;;12.88;2.25;;;6.70;99.90;;;;;;4952470;29;20039;-88
2024/03/25 07:00:56;;;;;;;12.60;2.00;;;5.70;99.90;;;;;;4940420;29;20058;-87
2024/03/25 07:03:23;;;;;;;14.85;2.25;;;7.10;99.90;;;;;;4953191;28;20074;-88
2024/03/25 07:05:59;;;;;;;14.50;2.13;;;5.80;99.90;;;;;;4958301;28;20055;-87
2024/03/25 07:08:26;;;;;;;;;;;5.90;99.90;;;;;;4952614;29;20523;-88
2024/03/25 07:10:55;;;;;;;10.80;2.08;;;5.90;99.90;;;;;;4963239;29;19922;-88
2024/03/25 07:13:22;;;;;;;11.32;2.05;;;6.00;99.90;;;;;;4959436;29;20040;-87
2024/03/25 07:15:49;;;;;;;10.35;2.30;;;5.90;99.90;;;;;;4958376;29;20044;-88
2024/03/25 07:18:16;;;;;;;13.02;2.15;;;5.90;99.90;;;;;;4960673;29;20066;-88
2024/03/25 07:20:43;;;;;;;16.95;1.75;;;6.80;99.90;;;;;;4949059;29;20047;-88
2024/03/25 07:23:11;;;;;;;13.98;2.17;;;5.90;99.90;;;;;;4950499;29;20048;-88
2024/03/25 07:25:37;;;;;;;7.70;2.35;;;6.00;99.90;;;;;;4952841;29;20043;-88
2024/03/25 07:28:05;;;;;;;13.38;2.25;;;6.50;99.90;;;;;;4956025;29;20102;-88
2024/03/25 07:30:32;;;;;;;8.63;1.85;;;6.10;99.90;;;;;;4946367;28;20043;-88
2024/03/25 07:32:59;;;;;;;13.00;2.20;;;6.60;99.90;;;;;;4965435;29;20036;-88
2024/03/25 07:35:26;;;;;;;13.50;1.95;;;6.10;99.90;;;;;;4952056;29;20077;-88
2024/03/25 07:37:52;;;;;;;12.98;1.80;;;7.30;99.90;;;;;;4950158;29;20512;-87
2024/03/25 07:40:20;;;;;;;10.77;2.00;;;6.90;99.90;;;;;;4949011;29;20043;-88
2024/03/25 07:42:48;;;;;;;8.15;2.10;;;6.40;99.90;;;;;;4946138;29;20047;-88
2024/03/25 07:45:16;;;;;;;10.80;1.95;;;6.40;99.90;;;;;;4946939;29;20047;-87
2024/03/25 07:47:42;;;;;;;12.38;1.98;;;6.40;99.90;;;;;;4976011;28;20917;-86
2024/03/25 07:50:09;;;;;;;14.00;2.45;;;6.60;99.90;;;;;;4966267;29;20039;-89
2024/03/25 07:52:40;;;;;;;11.35;2.10;;;6.70;99.90;;;;;;4960245;29;20039;-88
2024/03/25 07:55:07;;;;;;;13.52;2.30;;;6.80;99.90;;;;;;4972335;28;20039;-88
2024/03/25 07:57:34;;;;;;;12.68;2.17;;;6.80;99.90;;;;;;4974963;29;20035;-88
2024/03/25 08:00:02;;;;;;;9.45;2.20;;;6.90;99.90;;;;;;4959500;28;20043;-88
2024/03/25 08:02:31;;;;;;;9.23;1.90;;;7.00;99.90;;;;;;4954923;29;20059;-88
2024/03/25 08:04:58;;;;;;;11.75;1.80;;;7.10;99.90;;;;;;4946136;29;20052;-87
2024/03/25 08:07:25;;;;;;;10.50;1.65;;;7.20;99.90;;;;;;4953286;29;20083;-88
2024/03/25 08:09:51;;;;;;;14.60;2.03;;;7.30;99.90;;;;;;4970511;29;20040;-88
2024/03/25 08:12:18;;;;;;;10.90;1.90;;;7.40;99.90;;;;;;4951837;29;20040;-88
2024/03/25 08:14:44;;;;;;;9.82;1.55;;;8.40;99.90;;;;;;4966880;29;20397;-89
2024/03/25 08:17:11;;;;;;;14.60;1.77;;;7.60;99.90;;;;;;4951420;28;20036;-89
2024/03/25 08:19:38;;;;;;;7.68;1.77;;;7.60;99.90;;;;;;4965672;28;20109;-90
2024/03/25 08:22:04;;;;;;;7.20;1.80;;;7.70;99.90;;;;;;4958857;29;20030;-90
2024/03/25 08:24:33;;;;;;;9.75;1.50;;;7.70;99.90;;;;;;4947978;29;20051;-90
2024/03/25 08:27:00;;;;;;;10.32;1.60;;;7.70;99.90;;;;;;4961126;28;20094;-90
2024/03/25 08:29:27;;;;;;;13.13;1.83;;;7.70;99.90;;;;;;4969282;29;20436;-87
2024/03/25 08:31:53;;;;;;;9.77;1.60;;;8.00;99.90;;;;;;4967734;28;20118;-88
2024/03/25 08:34:20;;;;;;;8.68;1.58;;;8.50;99.90;;;;;;4958239;29;20122;-92
2024/03/25 08:36:49;;;;;;;9.95;2.33;;;8.00;99.90;;;;;;4950387;29;20047;-91
2024/03/25 08:39:16;;;;;;;11.43;1.70;;;8.50;99.90;;;;;;4952748;29;20039;-89
2024/03/25 08:41:42;;;;;;;9.80;2.00;;;8.00;99.90;;;;;;4962670;29;20412;-90
2024/03/25 08:44:09;;;;;;;13.43;2.25;;;7.80;99.90;;;;;;4951043;29;20043;-88
2024/03/25 08:46:37;;;;;;;10.60;2.00;;;8.10;99.90;;;;;;4974042;28;20501;-88
2024/03/25 08:49:04;;;;;;;8.85;1.80;;;7.80;99.90;;;;;;4962798;28;20125;-88
2024/03/25 08:51:31;;;;;;;9.73;1.80;;;7.70;99.90;;;;;;4959656;29;20122;-89
2024/03/25 08:53:57;;;;;;;12.10;2.55;;;7.80;99.90;;;;;;4950384;29;20027;-88
2024/03/25 08:56:24;;;;;;;7.40;1.38;;;7.80;99.90;;;;;;4948565;29;20035;-88
2024/03/25 08:58:54;;;;;;;8.68;2.38;;;7.90;99.90;;;;;;4945950;28;20050;-88
2024/03/25 09:01:24;;;;;;;13.50;2.13;;;7.90;99.90;;;;;;4956078;28;20122;-88
2024/03/25 09:03:51;;;;;;;9.88;2.05;;;8.00;99.90;;;;;;4959637;28;20043;-88
2024/03/25 09:06:17;;;;;;;8.77;1.95;;;8.10;99.90;;;;;;4962557;29;20114;-88
2024/03/25 09:11:29;;;;;;;16.08;2.03;;;9.10;99.90;;;;;;4975201;28;21482;-88
2024/03/25 09:13:56;;;;;;;10.07;1.77;;;8.40;99.90;;;;;;4973475;28;20050;-88
2024/03/25 09:16:22;;;;;;;10.63;2.05;;;8.30;99.90;;;;;;4965994;29;20130;-88
2024/03/25 09:18:49;;;;;;;9.98;1.75;;;8.40;99.90;;;;;;4968468;28;20039;-88
2024/03/25 09:21:16;;;;;;;6.75;1.63;;;8.40;99.90;;;;;;4950536;29;20058;-89
2024/03/25 09:23:42;;;;;;;6.30;1.33;;;8.20;99.90;;;;;;4958710;29;20046;-88
2024/03/25 09:26:10;;;;;;;8.43;1.65;;;8.80;99.90;;;;;;4966605;29;20591;-89
2024/03/25 09:28:40;;;;;;;7.32;1.30;;;8.40;99.90;;;;;;4961748;29;20055;-88
2024/03/25 09:31:07;;;;;;;10.30;1.80;;;8.60;99.90;;;;;;4952988;29;20040;-89
2024/03/25 09:33:34;;;;;;;7.68;1.15;;;9.20;99.90;;;;;;4954933;28;20040;-89
2024/03/25 09:36:00;;;;;;;12.27;1.70;;;9.00;99.90;;;;;;4949971;29;20461;-90
2024/03/25 09:38:27;;;;;;;6.82;1.30;;;9.20;99.90;;;;;;4960616;29;20138;-89
2024/03/25 09:40:55;;;;;;;7.45;1.42;;;9.20;99.90;;;;;;4958144;28;20046;-88
2024/03/25 09:43:33;;;;;;;5.95;1.30;;;9.30;99.90;;;;;;4962196;28;20043;-89
2024/03/25 09:46:00;;;;;;;6.38;1.35;;;9.80;99.90;;;;;;4945863;28;20040;-88
2024/03/25 09:48:28;;;;;;;9.43;1.60;;;10.30;99.90;;;;;;4970327;28;20043;-88
2024/03/25 09:50:56;;;;;;;6.90;1.58;;;9.70;99.90;;;;;;4960885;29;20496;-88
2024/03/25 09:53:23;;;;;;;5.40;1.20;;;9.70;99.90;;;;;;4959743;28;20484;-88
2024/03/25 09:55:49;;;;;;;8.63;1.58;;;9.50;99.90;;;;;;4972133;28;20041;-88
2024/03/25 09:58:18;;;;;;;6.78;1.38;;;9.50;99.90;;;;;;4960882;29;20035;-89
2024/03/25 10:00:45;;;;;;;7.72;1.92;;;9.40;99.90;;;;;;4955293;29;20106;-89
2024/03/25 10:03:14;;;;;;;5.15;1.20;;;9.20;99.90;;;;;;4959300;28;20512;-89
2024/03/25 10:05:41;;;;;;;6.07;1.02;;;9.10;99.90;;;;;;4960911;28;20424;-88
2024/03/25 10:08:08;;;;;;;4.10;0.90;;;10.00;99.90;;;;;;4981052;28;20043;-88
2024/03/25 10:10:38;;;;;;;5.20;1.05;;;8.80;99.90;;;;;;4968503;29;20047;-88
2024/03/25 10:13:04;;;;;;;9.82;1.58;;;8.80;99.90;;;;;;4953550;29;20118;-87
2024/03/25 10:15:32;;;;;;;4.05;1.25;;;8.70;99.90;;;;;;4939095;29;20074;-88
2024/03/25 10:17:59;;;;;;;9.40;1.23;;;8.70;99.90;;;;;;4956242;28;20109;-89
2024/03/25 10:20:25;;;;;;;10.82;1.60;;;8.80;99.90;;;;;;4977403;29;20058;-89
2024/03/25 10:22:52;;;;;;;6.82;1.50;;;8.40;99.90;;;;;;4954313;29;20051;-89
2024/03/25 10:25:23;;;;;;;6.10;1.67;;;8.10;99.90;;;;;;4957635;29;20492;-88
2024/03/25 10:28:02;;;;;;;9.23;1.83;;;8.00;99.90;;;;;;4960893;28;20090;-88
2024/03/25 10:30:29;;;;;;;9.25;1.40;;;8.00;99.90;;;;;;4970953;28;20050;-88
2024/03/25 10:33:03;;;;;;;8.23;1.30;;;8.10;99.90;;;;;;4957544;29;20458;-90
2024/03/25 10:35:35;;;;;;;5.05;0.98;;;8.20;99.90;;;;;;4956453;29;20046;-87
2024/03/25 10:38:04;;;;;;;7.32;1.30;;;9.40;99.90;;;;;;4941024;29;20079;-89
2024/03/25 10:40:35;;;;;;;13.70;1.95;;;8.40;99.90;;;;;;4954556;29;20043;-89
2024/03/25 10:43:02;;;;;;;6.10;1.40;;;8.90;99.90;;;;;;4950548;29;20043;-89
2024/03/25 10:45:30;;;;;;;6.78;1.58;;;8.50;99.90;;;;;;4957249;29;20070;-90
2024/03/25 10:48:17;;;;;;;7.93;1.50;;;8.40;99.90;;;;;;4951815;29;20039;-89
2024/03/25 10:50:45;;;;;;;6.47;1.55;;;9.20;99.90;;;;;;4964917;28;20058;-89
2024/03/25 10:53:14;;;;;;;7.80;1.33;;;8.80;99.90;;;;;;4979086;28;20452;-89
2024/03/25 10:55:41;;;;;;;10.93;1.35;;;8.40;99.90;;;;;;4955443;28;20043;-91
2024/03/25 10:58:08;;;;;;;3.63;1.10;;;8.30;99.90;;;;;;4966480;28;20035;-89
2024/03/25 11:00:36;;;;;;;4.00;1.02;;;8.50;99.90;;;;;;4959891;29;20058;-89
2024/03/25 11:03:03;;;;;;;8.50;1.27;;;8.40;99.90;;;;;;4964632;28;20039;-88
2024/03/25 11:05:30;;;;;;;7.72;1.15;;;8.40;99.90;;;;;;4961294;28;20059;-89
2024/03/25 11:08:08;;;;;;;8.95;1.00;;;8.50;99.90;;;;;;4970895;28;20051;-90
2024/03/25 11:10:42;;;;;;;5.07;1.00;;;9.00;99.90;;;;;;4968424;28;20050;-90
2024/03/25 11:13:19;;;;;;;4.78;1.00;;;8.90;99.90;;;;;;4959834;28;20046;-91
2024/03/25 11:15:47;;;;;;;7.68;1.65;;;9.30;99.90;;;;;;4959645;29;20122;-89
2024/03/25 11:18:16;;;;;;;6.75;1.20;;;9.00;99.90;;;;;;4955639;29;20035;-89
2024/03/25 11:20:43;;;;;;;6.70;1.27;;;9.80;99.90;;;;;;4946835;29;20047;-89
2024/03/25 11:23:11;;;;;;;4.55;1.00;;;9.60;99.90;;;;;;4952366;28;20131;-88
2024/03/25 11:25:39;;;;;;;5.70;0.90;;;9.60;99.90;;;;;;4956398;29;20050;-91
2024/03/25 11:28:08;;;;;;;5.78;1.23;;;9.70;99.90;;;;;;4956660;29;20050;-90
2024/03/25 11:30:36;;;;;;;8.13;1.13;;;9.90;99.90;;;;;;4952898;29;20078;-91
2024/03/25 11:33:06;;;;;;;7.38;1.08;;;10.10;99.90;;;;;;4948050;28;20031;-90
2024/03/25 11:35:39;;;;;;;3.80;0.70;;;10.10;99.90;;;;;;4955783;29;20080;-91
2024/03/25 11:38:06;;;;;;;7.38;1.15;;;10.20;99.90;;;;;;4943714;29;20544;-91
2024/03/25 11:40:32;;;;;;;7.43;1.20;;;10.00;99.90;;;;;;4952034;28;20091;-90
2024/03/25 11:42:59;;;;;;;6.05;1.10;;;10.50;99.90;;;;;;4945170;29;20409;-90
2024/03/25 11:45:26;;;;;;;5.13;1.10;;;9.90;99.90;;;;;;4944701;29;20043;-90
2024/03/25 11:47:52;;;;;;;5.78;1.30;;;9.70;99.90;;;;;;4946773;29;20035;-90
2024/03/25 11:50:19;;;;;;;6.32;1.30;;;9.50;99.90;;;;;;4951484;29;20047;-90
2024/03/25 11:52:46;;;;;;;2.53;0.82;;;10.00;99.90;;;;;;4941837;28;20067;-91
2024/03/25 11:55:19;;;;;;;7.03;1.60;;;9.10;99.90;;;;;;4942544;29;20042;-91
2024/03/25 11:57:46;;;;;;;7.03;1.30;;;9.00;99.90;;;;;;4948091;29;20106;-90
2024/03/25 12:00:15;;;;;;;5.32;1.20;;;8.90;99.90;;;;;;4950028;29;20043;-90
2024/03/25 12:02:46;;;;;;;5.75;1.17;;;8.80;99.90;;;;;;4956251;29;20091;-90
2024/03/25 12:05:12;;;;;;;6.20;1.40;;;8.90;99.90;;;;;;4956502;29;20524;-90
2024/03/25 12:07:39;;;;;;;5.55;1.30;;;8.70;99.90;;;;;;4957990;29;20126;-89
2024/03/25 12:12:52;;;;;;;7.18;1.40;;;8.60;99.90;;;;;;4961124;29;20409;-90
2024/03/25 12:15:20;;;;;;;5.22;1.30;;;8.60;99.90;;;;;;4952699;29;20047;-90
2024/03/25 12:17:47;;;;;;;8.18;1.60;;;9.00;99.90;;;;;;4961819;28;20043;-90
2024/03/25 12:20:14;;;;;;;5.00;1.02;;;8.70;99.90;;;;;;4956917;29;20066;-90
2024/03/25 12:22:41;;;;;;;3.67;1.08;;;8.90;99.90;;;;;;4946959;28;20042;-89
2024/03/25 12:25:08;;;;;;;6.38;1.20;;;8.90;99.90;;;;;;4945648;29;20044;-91
2024/03/25 12:27:40;;;;;;;7.38;1.35;;;9.00;99.90;;;;;;4952055;29;20484;-90
2024/03/25 12:30:09;;;;;;;4.63;1.17;;;9.40;99.90;;;;;;4946347;29;20048;-90
2024/03/25 12:32:43;;;;;;;3.65;1.02;;;9.00;99.90;;;;;;4950062;29;20093;-91
2024/03/25 12:35:12;;;;;;;6.00;1.40;;;9.00;99.90;;;;;;4949207;29;20040;-90
2024/03/25 12:37:44;;;;;;;6.93;1.42;;;9.10;99.90;;;;;;4950461;29;20043;-90
2024/03/25 12:40:14;;;;;;;4.72;1.20;;;9.20;99.90;;;;;;4953653;29;20123;-90
2024/03/25 12:42:40;;;;;;;3.58;0.90;;;9.20;99.90;;;;;;4951851;28;20055;-90
2024/03/25 12:45:08;;;;;;;6.97;1.05;;;9.30;99.90;;;;;;4944492;29;20050;-90
2024/03/25 12:47:35;;;;;;;7.45;1.75;;;9.30;99.90;;;;;;4951663;28;20047;-90
2024/03/25 12:50:02;;;;;;;4.88;1.40;;;9.40;99.90;;;;;;4958113;29;20059;-90
2024/03/25 12:52:28;;;;;;;4.57;1.17;;;9.50;99.90;;;;;;4943683;29;20036;-91
2024/03/25 12:54:55;;;;;;;5.75;1.10;;;9.50;99.90;;;;;;4958029;28;20027;-90
2024/03/25 12:57:22;;;;;;;3.70;1.13;;;9.60;99.90;;;;;;4950469;29;20054;-90
2024/03/25 12:59:48;;;;;;;5.22;1.33;;;10.30;99.90;;;;;;4988966;28;20042;-90
2024/03/25 13:02:15;;;;;;;4.47;1.80;;;9.60;99.90;;;;;;4964878;29;20050;-91